sensor_id;sensor_type;location;lat;lon;timestamp;P1;durP1;ratioP1;P2;durP2;ratioP2
12852;SDS011;6495;51.808;7.478;2023-07-24T00:01:43;2.35;;;2.10;;
12852;SDS011;6495;51.808;7.478;2023-07-24T00:04:11;2.47;;;2.25;;
12852;SDS011;6495;51.808;7.478;2023-07-24T00:06:39;3.25;;;2.17;;
12852;SDS011;6495;51.808;7.478;2023-07-24T00:09:07;2.92;;;2.33;;
12852;SDS011;6495;51.808;7.478;2023-07-24T00:11:36;2.58;;;1.90;;
12852;SDS011;6495;51.808;7.478;2023-07-24T00:14:04;4.80;;;2.55;;
12852;SDS011;6495;51.808;7.478;2023-07-24T00:16:33;3.72;;;2.20;;
12852;SDS011;6495;51.808;7.478;2023-07-24T00:19:01;3.42;;;2.20;;
12852;SDS011;6495;51.808;7.478;2023-07-24T00:21:30;3.50;;;2.00;;
12852;SDS011;6495;51.808;7.478;2023-07-24T00:23:58;6.05;;;2.22;;
12852;SDS011;6495;51.808;7.478;2023-07-24T00:26:26;2.92;;;2.10;;
12852;SDS011;6495;51.808;7.478;2023-07-24T00:28:55;2.85;;;2.08;;
12852;SDS011;6495;51.808;7.478;2023-07-24T00:31:23;2.22;;;1.88;;
12852;SDS011;6495;51.808;7.478;2023-07-24T00:33:53;2.05;;;1.70;;
12852;SDS011;6495;51.808;7.478;2023-07-24T00:36:21;4.32;;;2.25;;
12852;SDS011;6495;51.808;7.478;2023-07-24T00:38:49;2.45;;;1.92;;
12852;SDS011;6495;51.808;7.478;2023-07-24T00:41:17;2.72;;;2.13;;
12852;SDS011;6495;51.808;7.478;2023-07-24T00:43:45;3.45;;;2.15;;
12852;SDS011;6495;51.808;7.478;2023-07-24T00:46:13;2.58;;;2.10;;
12852;SDS011;6495;51.808;7.478;2023-07-24T00:48:42;5.32;;;2.30;;
12852;SDS011;6495;51.808;7.478;2023-07-24T00:51:11;3.05;;;1.98;;
12852;SDS011;6495;51.808;7.478;2023-07-24T00:53:40;3.47;;;1.88;;
12852;SDS011;6495;51.808;7.478;2023-07-24T00:56:08;2.40;;;2.00;;
12852;SDS011;6495;51.808;7.478;2023-07-24T00:58:37;3.53;;;2.10;;
12852;SDS011;6495;51.808;7.478;2023-07-24T01:01:05;2.45;;;1.88;;
12852;SDS011;6495;51.808;7.478;2023-07-24T01:03:34;3.22;;;2.10;;
12852;SDS011;6495;51.808;7.478;2023-07-24T01:06:04;2.33;;;1.90;;
12852;SDS011;6495;51.808;7.478;2023-07-24T01:08:34;3.17;;;2.00;;
12852;SDS011;6495;51.808;7.478;2023-07-24T01:11:03;4.35;;;1.85;;
12852;SDS011;6495;51.808;7.478;2023-07-24T01:13:42;3.20;;;1.85;;
12852;SDS011;6495;51.808;7.478;2023-07-24T01:16:19;2.38;;;1.85;;
12852;SDS011;6495;51.808;7.478;2023-07-24T01:18:53;5.78;;;2.00;;
12852;SDS011;6495;51.808;7.478;2023-07-24T01:21:25;4.90;;;2.00;;
12852;SDS011;6495;51.808;7.478;2023-07-24T01:24:09;3.65;;;2.05;;
12852;SDS011;6495;51.808;7.478;2023-07-24T01:26:52;3.75;;;2.13;;
12852;SDS011;6495;51.808;7.478;2023-07-24T01:29:21;4.45;;;1.92;;
12852;SDS011;6495;51.808;7.478;2023-07-24T01:31:49;2.42;;;2.08;;
12852;SDS011;6495;51.808;7.478;2023-07-24T01:34:17;2.50;;;1.85;;
12852;SDS011;6495;51.808;7.478;2023-07-24T01:36:46;4.95;;;2.13;;
12852;SDS011;6495;51.808;7.478;2023-07-24T01:39:16;3.92;;;2.17;;
12852;SDS011;6495;51.808;7.478;2023-07-24T01:41:46;4.60;;;1.90;;
12852;SDS011;6495;51.808;7.478;2023-07-24T01:44:16;2.50;;;1.85;;
12852;SDS011;6495;51.808;7.478;2023-07-24T01:46:45;5.35;;;1.80;;
12852;SDS011;6495;51.808;7.478;2023-07-24T01:49:13;2.65;;;1.80;;
12852;SDS011;6495;51.808;7.478;2023-07-24T01:51:43;2.53;;;1.90;;
12852;SDS011;6495;51.808;7.478;2023-07-24T01:54:15;2.70;;;1.90;;
12852;SDS011;6495;51.808;7.478;2023-07-24T01:56:43;1.80;;;1.63;;
12852;SDS011;6495;51.808;7.478;2023-07-24T01:59:12;3.33;;;1.95;;
12852;SDS011;6495;51.808;7.478;2023-07-24T02:01:42;4.28;;;1.85;;
12852;SDS011;6495;51.808;7.478;2023-07-24T02:04:10;6.13;;;2.08;;
12852;SDS011;6495;51.808;7.478;2023-07-24T02:06:40;2.70;;;1.90;;
12852;SDS011;6495;51.808;7.478;2023-07-24T02:09:09;2.42;;;1.90;;
12852;SDS011;6495;51.808;7.478;2023-07-24T02:11:38;3.78;;;1.95;;
12852;SDS011;6495;51.808;7.478;2023-07-24T02:14:07;4.35;;;2.33;;
12852;SDS011;6495;51.808;7.478;2023-07-24T02:16:35;6.90;;;2.08;;
12852;SDS011;6495;51.808;7.478;2023-07-24T02:19:12;3.92;;;2.10;;
12852;SDS011;6495;51.808;7.478;2023-07-24T02:21:41;4.47;;;2.15;;
12852;SDS011;6495;51.808;7.478;2023-07-24T02:24:09;3.63;;;2.10;;
12852;SDS011;6495;51.808;7.478;2023-07-24T02:26:37;2.22;;;1.98;;
12852;SDS011;6495;51.808;7.478;2023-07-24T02:29:05;2.90;;;2.20;;
12852;SDS011;6495;51.808;7.478;2023-07-24T02:31:34;3.67;;;1.88;;
12852;SDS011;6495;51.808;7.478;2023-07-24T02:34:02;3.20;;;2.10;;
12852;SDS011;6495;51.808;7.478;2023-07-24T02:36:32;4.05;;;2.00;;
12852;SDS011;6495;51.808;7.478;2023-07-24T02:39:01;3.40;;;1.77;;
12852;SDS011;6495;51.808;7.478;2023-07-24T02:41:31;2.35;;;2.05;;
12852;SDS011;6495;51.808;7.478;2023-07-24T02:43:59;3.45;;;1.83;;
12852;SDS011;6495;51.808;7.478;2023-07-24T02:46:27;4.20;;;1.73;;
12852;SDS011;6495;51.808;7.478;2023-07-24T02:48:57;3.75;;;1.92;;
12852;SDS011;6495;51.808;7.478;2023-07-24T02:51:27;4.03;;;2.17;;
12852;SDS011;6495;51.808;7.478;2023-07-24T02:53:56;3.88;;;2.20;;
12852;SDS011;6495;51.808;7.478;2023-07-24T02:56:32;6.57;;;2.22;;
12852;SDS011;6495;51.808;7.478;2023-07-24T02:59:00;2.30;;;2.08;;
12852;SDS011;6495;51.808;7.478;2023-07-24T03:01:28;4.68;;;2.20;;
12852;SDS011;6495;51.808;7.478;2023-07-24T03:03:56;4.43;;;2.80;;
12852;SDS011;6495;51.808;7.478;2023-07-24T03:06:25;5.63;;;2.15;;
12852;SDS011;6495;51.808;7.478;2023-07-24T03:09:11;5.15;;;1.88;;
12852;SDS011;6495;51.808;7.478;2023-07-24T03:11:39;2.78;;;1.92;;
12852;SDS011;6495;51.808;7.478;2023-07-24T03:14:07;4.68;;;2.03;;
12852;SDS011;6495;51.808;7.478;2023-07-24T03:16:37;3.35;;;1.83;;
12852;SDS011;6495;51.808;7.478;2023-07-24T03:19:06;3.30;;;1.98;;
12852;SDS011;6495;51.808;7.478;2023-07-24T03:21:34;2.53;;;2.08;;
12852;SDS011;6495;51.808;7.478;2023-07-24T03:24:02;2.95;;;2.10;;
12852;SDS011;6495;51.808;7.478;2023-07-24T03:26:33;2.38;;;2.03;;
12852;SDS011;6495;51.808;7.478;2023-07-24T03:29:01;3.40;;;2.00;;
12852;SDS011;6495;51.808;7.478;2023-07-24T03:31:29;3.75;;;2.00;;
12852;SDS011;6495;51.808;7.478;2023-07-24T03:33:58;3.63;;;2.28;;
12852;SDS011;6495;51.808;7.478;2023-07-24T03:36:26;2.13;;;1.92;;
12852;SDS011;6495;51.808;7.478;2023-07-24T03:38:55;4.63;;;2.03;;
12852;SDS011;6495;51.808;7.478;2023-07-24T03:41:23;3.53;;;2.30;;
12852;SDS011;6495;51.808;7.478;2023-07-24T03:44:02;3.22;;;2.30;;
12852;SDS011;6495;51.808;7.478;2023-07-24T03:46:34;2.85;;;2.38;;
12852;SDS011;6495;51.808;7.478;2023-07-24T03:49:10;4.85;;;2.20;;
12852;SDS011;6495;51.808;7.478;2023-07-24T03:51:39;3.58;;;2.00;;
12852;SDS011;6495;51.808;7.478;2023-07-24T03:54:07;3.45;;;2.33;;
12852;SDS011;6495;51.808;7.478;2023-07-24T03:56:36;5.13;;;2.30;;
12852;SDS011;6495;51.808;7.478;2023-07-24T03:59:06;2.72;;;1.80;;
12852;SDS011;6495;51.808;7.478;2023-07-24T04:01:35;3.65;;;2.08;;
12852;SDS011;6495;51.808;7.478;2023-07-24T04:04:09;4.53;;;2.30;;
12852;SDS011;6495;51.808;7.478;2023-07-24T04:10:04;4.93;;;2.33;;
12852;SDS011;6495;51.808;7.478;2023-07-24T04:12:34;5.55;;;2.70;;
12852;SDS011;6495;51.808;7.478;2023-07-24T04:15:05;2.92;;;2.63;;
12852;SDS011;6495;51.808;7.478;2023-07-24T04:17:43;4.55;;;2.30;;
12852;SDS011;6495;51.808;7.478;2023-07-24T04:20:11;4.03;;;2.30;;
12852;SDS011;6495;51.808;7.478;2023-07-24T04:22:40;5.20;;;2.22;;
12852;SDS011;6495;51.808;7.478;2023-07-24T04:25:09;4.40;;;2.40;;
12852;SDS011;6495;51.808;7.478;2023-07-24T04:31:23;3.58;;;2.28;;
12852;SDS011;6495;51.808;7.478;2023-07-24T04:33:57;4.65;;;2.83;;
12852;SDS011;6495;51.808;7.478;2023-07-24T04:36:35;3.47;;;2.67;;
12852;SDS011;6495;51.808;7.478;2023-07-24T04:39:04;4.53;;;2.33;;
12852;SDS011;6495;51.808;7.478;2023-07-24T04:41:35;3.80;;;2.65;;
12852;SDS011;6495;51.808;7.478;2023-07-24T04:44:04;7.30;;;2.55;;
12852;SDS011;6495;51.808;7.478;2023-07-24T04:46:33;3.65;;;2.55;;
12852;SDS011;6495;51.808;7.478;2023-07-24T04:49:02;4.60;;;2.80;;
12852;SDS011;6495;51.808;7.478;2023-07-24T04:51:32;3.97;;;2.55;;
12852;SDS011;6495;51.808;7.478;2023-07-24T04:54:02;5.28;;;2.80;;
12852;SDS011;6495;51.808;7.478;2023-07-24T04:56:30;3.58;;;2.63;;
12852;SDS011;6495;51.808;7.478;2023-07-24T04:58:58;3.83;;;2.40;;
12852;SDS011;6495;51.808;7.478;2023-07-24T05:01:27;4.72;;;2.40;;
12852;SDS011;6495;51.808;7.478;2023-07-24T05:03:56;4.18;;;2.22;;
12852;SDS011;6495;51.808;7.478;2023-07-24T05:06:24;6.15;;;2.65;;
12852;SDS011;6495;51.808;7.478;2023-07-24T05:08:54;3.55;;;2.60;;
12852;SDS011;6495;51.808;7.478;2023-07-24T05:11:22;4.07;;;2.85;;
12852;SDS011;6495;51.808;7.478;2023-07-24T05:13:50;4.40;;;2.72;;
12852;SDS011;6495;51.808;7.478;2023-07-24T05:16:19;4.65;;;2.95;;
12852;SDS011;6495;51.808;7.478;2023-07-24T05:18:47;7.85;;;3.25;;
12852;SDS011;6495;51.808;7.478;2023-07-24T05:21:17;5.25;;;2.65;;
12852;SDS011;6495;51.808;7.478;2023-07-24T05:23:45;3.15;;;2.35;;
12852;SDS011;6495;51.808;7.478;2023-07-24T05:26:13;3.65;;;2.50;;
12852;SDS011;6495;51.808;7.478;2023-07-24T05:28:42;5.70;;;3.00;;
12852;SDS011;6495;51.808;7.478;2023-07-24T05:31:10;5.03;;;2.50;;
12852;SDS011;6495;51.808;7.478;2023-07-24T05:33:40;5.32;;;2.60;;
12852;SDS011;6495;51.808;7.478;2023-07-24T05:36:08;3.58;;;2.70;;
12852;SDS011;6495;51.808;7.478;2023-07-24T05:38:38;4.95;;;2.97;;
12852;SDS011;6495;51.808;7.478;2023-07-24T05:41:06;4.30;;;2.95;;
12852;SDS011;6495;51.808;7.478;2023-07-24T05:43:34;4.57;;;3.10;;
12852;SDS011;6495;51.808;7.478;2023-07-24T05:46:04;3.78;;;2.53;;
12852;SDS011;6495;51.808;7.478;2023-07-24T05:48:32;4.22;;;3.10;;
12852;SDS011;6495;51.808;7.478;2023-07-24T05:51:01;4.47;;;2.80;;
12852;SDS011;6495;51.808;7.478;2023-07-24T05:53:33;8.27;;;3.13;;
12852;SDS011;6495;51.808;7.478;2023-07-24T05:56:04;4.45;;;2.90;;
12852;SDS011;6495;51.808;7.478;2023-07-24T05:58:33;3.67;;;3.22;;
12852;SDS011;6495;51.808;7.478;2023-07-24T06:01:04;4.35;;;2.92;;
12852;SDS011;6495;51.808;7.478;2023-07-24T06:03:37;5.30;;;3.65;;
12852;SDS011;6495;51.808;7.478;2023-07-24T06:06:11;4.15;;;3.28;;
12852;SDS011;6495;51.808;7.478;2023-07-24T06:08:42;5.57;;;3.95;;
12852;SDS011;6495;51.808;7.478;2023-07-24T06:11:12;7.50;;;4.05;;
12852;SDS011;6495;51.808;7.478;2023-07-24T06:13:40;4.85;;;3.80;;
12852;SDS011;6495;51.808;7.478;2023-07-24T06:16:08;5.07;;;3.85;;
12852;SDS011;6495;51.808;7.478;2023-07-24T06:18:40;4.47;;;3.47;;
12852;SDS011;6495;51.808;7.478;2023-07-24T06:21:10;5.00;;;3.90;;
12852;SDS011;6495;51.808;7.478;2023-07-24T06:23:38;7.22;;;3.85;;
12852;SDS011;6495;51.808;7.478;2023-07-24T06:26:06;5.40;;;3.80;;
12852;SDS011;6495;51.808;7.478;2023-07-24T06:28:41;6.70;;;4.25;;
12852;SDS011;6495;51.808;7.478;2023-07-24T06:31:14;7.22;;;4.32;;
12852;SDS011;6495;51.808;7.478;2023-07-24T06:33:42;5.45;;;3.67;;
12852;SDS011;6495;51.808;7.478;2023-07-24T06:36:12;7.75;;;3.53;;
12852;SDS011;6495;51.808;7.478;2023-07-24T06:38:41;5.32;;;4.15;;
12852;SDS011;6495;51.808;7.478;2023-07-24T06:41:10;4.63;;;3.80;;
12852;SDS011;6495;51.808;7.478;2023-07-24T06:43:40;6.57;;;3.88;;
12852;SDS011;6495;51.808;7.478;2023-07-24T06:46:08;6.55;;;3.42;;
12852;SDS011;6495;51.808;7.478;2023-07-24T06:48:36;4.20;;;3.65;;
12852;SDS011;6495;51.808;7.478;2023-07-24T06:51:05;5.53;;;3.70;;
12852;SDS011;6495;51.808;7.478;2023-07-24T06:53:33;5.97;;;3.85;;
12852;SDS011;6495;51.808;7.478;2023-07-24T06:56:02;6.50;;;3.90;;
12852;SDS011;6495;51.808;7.478;2023-07-24T06:58:31;7.45;;;4.00;;
12852;SDS011;6495;51.808;7.478;2023-07-24T07:01:02;6.75;;;4.15;;
12852;SDS011;6495;51.808;7.478;2023-07-24T07:03:36;8.25;;;3.88;;
12852;SDS011;6495;51.808;7.478;2023-07-24T07:06:04;7.75;;;4.07;;
12852;SDS011;6495;51.808;7.478;2023-07-24T07:08:54;5.20;;;3.78;;
12852;SDS011;6495;51.808;7.478;2023-07-24T07:11:22;5.47;;;3.70;;
12852;SDS011;6495;51.808;7.478;2023-07-24T07:13:51;4.82;;;3.85;;
12852;SDS011;6495;51.808;7.478;2023-07-24T07:16:21;4.25;;;3.67;;
12852;SDS011;6495;51.808;7.478;2023-07-24T07:18:49;4.32;;;3.67;;
12852;SDS011;6495;51.808;7.478;2023-07-24T07:21:18;6.90;;;4.18;;
12852;SDS011;6495;51.808;7.478;2023-07-24T07:23:46;7.13;;;4.00;;
12852;SDS011;6495;51.808;7.478;2023-07-24T07:26:14;8.35;;;4.70;;
12852;SDS011;6495;51.808;7.478;2023-07-24T07:28:43;5.47;;;4.40;;
12852;SDS011;6495;51.808;7.478;2023-07-24T07:31:18;5.82;;;3.67;;
12852;SDS011;6495;51.808;7.478;2023-07-24T07:33:57;4.53;;;3.65;;
12852;SDS011;6495;51.808;7.478;2023-07-24T07:36:32;5.05;;;3.70;;
12852;SDS011;6495;51.808;7.478;2023-07-24T07:39:00;9.63;;;3.65;;
12852;SDS011;6495;51.808;7.478;2023-07-24T07:41:35;6.47;;;4.18;;
12852;SDS011;6495;51.808;7.478;2023-07-24T07:44:04;5.32;;;3.70;;
12852;SDS011;6495;51.808;7.478;2023-07-24T07:46:33;4.97;;;3.67;;
12852;SDS011;6495;51.808;7.478;2023-07-24T07:51:34;6.80;;;4.65;;
12852;SDS011;6495;51.808;7.478;2023-07-24T07:54:02;5.28;;;4.22;;
12852;SDS011;6495;51.808;7.478;2023-07-24T07:56:30;6.47;;;4.65;;
12852;SDS011;6495;51.808;7.478;2023-07-24T07:58:58;5.25;;;4.07;;
12852;SDS011;6495;51.808;7.478;2023-07-24T08:01:27;6.57;;;4.63;;
12852;SDS011;6495;51.808;7.478;2023-07-24T08:03:56;5.43;;;3.47;;
12852;SDS011;6495;51.808;7.478;2023-07-24T08:06:24;4.25;;;3.33;;
12852;SDS011;6495;51.808;7.478;2023-07-24T08:08:53;4.43;;;2.95;;
12852;SDS011;6495;51.808;7.478;2023-07-24T08:11:21;2.58;;;2.38;;
12852;SDS011;6495;51.808;7.478;2023-07-24T08:13:49;3.33;;;2.45;;
12852;SDS011;6495;51.808;7.478;2023-07-24T08:16:18;3.15;;;2.33;;
12852;SDS011;6495;51.808;7.478;2023-07-24T08:18:46;2.10;;;1.90;;
12852;SDS011;6495;51.808;7.478;2023-07-24T08:21:19;3.05;;;1.88;;
12852;SDS011;6495;51.808;7.478;2023-07-24T08:23:47;2.85;;;1.80;;
12852;SDS011;6495;51.808;7.478;2023-07-24T08:26:15;2.15;;;1.73;;
12852;SDS011;6495;51.808;7.478;2023-07-24T08:28:43;4.63;;;2.10;;
12852;SDS011;6495;51.808;7.478;2023-07-24T08:31:11;1.63;;;1.33;;
12852;SDS011;6495;51.808;7.478;2023-07-24T08:33:40;2.22;;;1.40;;
12852;SDS011;6495;51.808;7.478;2023-07-24T08:36:08;3.22;;;1.55;;
12852;SDS011;6495;51.808;7.478;2023-07-24T08:38:39;1.95;;;1.75;;
12852;SDS011;6495;51.808;7.478;2023-07-24T08:41:09;2.60;;;1.38;;
12852;SDS011;6495;51.808;7.478;2023-07-24T08:43:39;4.13;;;1.40;;
12852;SDS011;6495;51.808;7.478;2023-07-24T08:46:10;1.65;;;1.48;;
12852;SDS011;6495;51.808;7.478;2023-07-24T08:48:39;2.13;;;1.63;;
12852;SDS011;6495;51.808;7.478;2023-07-24T08:51:10;1.33;;;1.23;;
12852;SDS011;6495;51.808;7.478;2023-07-24T08:53:41;1.67;;;1.35;;
12852;SDS011;6495;51.808;7.478;2023-07-24T08:56:11;2.72;;;1.00;;
12852;SDS011;6495;51.808;7.478;2023-07-24T08:58:40;1.15;;;0.80;;
12852;SDS011;6495;51.808;7.478;2023-07-24T09:01:09;1.52;;;1.10;;
12852;SDS011;6495;51.808;7.478;2023-07-24T09:03:37;0.90;;;0.90;;
12852;SDS011;6495;51.808;7.478;2023-07-24T09:06:06;1.23;;;1.13;;
12852;SDS011;6495;51.808;7.478;2023-07-24T09:08:35;2.47;;;1.23;;
12852;SDS011;6495;51.808;7.478;2023-07-24T09:11:07;1.30;;;1.20;;
12852;SDS011;6495;51.808;7.478;2023-07-24T09:13:41;1.30;;;1.10;;
12852;SDS011;6495;51.808;7.478;2023-07-24T09:16:21;1.52;;;1.42;;
12852;SDS011;6495;51.808;7.478;2023-07-24T09:18:51;1.40;;;1.30;;
12852;SDS011;6495;51.808;7.478;2023-07-24T09:21:27;2.83;;;1.40;;
12852;SDS011;6495;51.808;7.478;2023-07-24T09:23:56;1.30;;;1.20;;
12852;SDS011;6495;51.808;7.478;2023-07-24T09:26:26;1.40;;;1.30;;
12852;SDS011;6495;51.808;7.478;2023-07-24T09:28:56;1.73;;;1.40;;
12852;SDS011;6495;51.808;7.478;2023-07-24T09:31:33;1.42;;;1.30;;
12852;SDS011;6495;51.808;7.478;2023-07-24T09:34:04;1.38;;;1.27;;
12852;SDS011;6495;51.808;7.478;2023-07-24T09:36:41;1.65;;;1.38;;
12852;SDS011;6495;51.808;7.478;2023-07-24T09:39:10;2.65;;;1.65;;
12852;SDS011;6495;51.808;7.478;2023-07-24T09:41:40;1.90;;;1.70;;
12852;SDS011;6495;51.808;7.478;2023-07-24T09:44:11;1.50;;;1.40;;
12852;SDS011;6495;51.808;7.478;2023-07-24T09:46:40;1.70;;;1.60;;
12852;SDS011;6495;51.808;7.478;2023-07-24T09:49:27;1.70;;;1.58;;
12852;SDS011;6495;51.808;7.478;2023-07-24T09:52:02;1.88;;;1.67;;
12852;SDS011;6495;51.808;7.478;2023-07-24T09:54:39;1.48;;;1.38;;
12852;SDS011;6495;51.808;7.478;2023-07-24T09:57:17;1.77;;;1.65;;
12852;SDS011;6495;51.808;7.478;2023-07-24T09:59:48;1.25;;;1.15;;
12852;SDS011;6495;51.808;7.478;2023-07-24T10:02:17;1.80;;;1.58;;
12852;SDS011;6495;51.808;7.478;2023-07-24T10:04:46;1.95;;;1.63;;
12852;SDS011;6495;51.808;7.478;2023-07-24T10:07:16;2.05;;;1.70;;
12852;SDS011;6495;51.808;7.478;2023-07-24T10:09:48;2.45;;;1.52;;
12852;SDS011;6495;51.808;7.478;2023-07-24T10:12:18;2.83;;;1.38;;
12852;SDS011;6495;51.808;7.478;2023-07-24T10:14:48;2.15;;;1.70;;
12852;SDS011;6495;51.808;7.478;2023-07-24T10:17:24;1.90;;;1.50;;
12852;SDS011;6495;51.808;7.478;2023-07-24T10:20:03;2.22;;;1.25;;
12852;SDS011;6495;51.808;7.478;2023-07-24T10:22:35;1.50;;;1.40;;
12852;SDS011;6495;51.808;7.478;2023-07-24T10:25:09;1.67;;;1.48;;
12852;SDS011;6495;51.808;7.478;2023-07-24T10:27:43;3.10;;;1.55;;
12852;SDS011;6495;51.808;7.478;2023-07-24T10:30:14;1.50;;;1.38;;
12852;SDS011;6495;51.808;7.478;2023-07-24T10:33:04;1.83;;;1.30;;
12852;SDS011;6495;51.808;7.478;2023-07-24T10:35:39;1.95;;;1.50;;
12852;SDS011;6495;51.808;7.478;2023-07-24T10:38:13;2.35;;;1.45;;
12852;SDS011;6495;51.808;7.478;2023-07-24T10:40:44;2.05;;;1.75;;
12852;SDS011;6495;51.808;7.478;2023-07-24T10:43:18;1.20;;;1.10;;
12852;SDS011;6495;51.808;7.478;2023-07-24T10:45:48;3.42;;;1.63;;
12852;SDS011;6495;51.808;7.478;2023-07-24T10:48:19;1.55;;;1.30;;
12852;SDS011;6495;51.808;7.478;2023-07-24T10:50:50;1.65;;;1.40;;
12852;SDS011;6495;51.808;7.478;2023-07-24T10:53:21;1.85;;;1.50;;
12852;SDS011;6495;51.808;7.478;2023-07-24T10:55:52;4.82;;;1.80;;
12852;SDS011;6495;51.808;7.478;2023-07-24T10:58:22;2.00;;;1.80;;
12852;SDS011;6495;51.808;7.478;2023-07-24T11:00:53;2.15;;;1.40;;
12852;SDS011;6495;51.808;7.478;2023-07-24T11:03:24;2.65;;;1.52;;
12852;SDS011;6495;51.808;7.478;2023-07-24T11:05:53;3.03;;;1.50;;
12852;SDS011;6495;51.808;7.478;2023-07-24T11:08:22;1.80;;;1.30;;
12852;SDS011;6495;51.808;7.478;2023-07-24T11:10:50;2.75;;;1.70;;
12852;SDS011;6495;51.808;7.478;2023-07-24T11:13:23;2.22;;;1.75;;
12852;SDS011;6495;51.808;7.478;2023-07-24T11:15:53;2.40;;;1.55;;
12852;SDS011;6495;51.808;7.478;2023-07-24T11:18:22;3.05;;;2.25;;
12852;SDS011;6495;51.808;7.478;2023-07-24T11:21:11;2.92;;;2.22;;
12852;SDS011;6495;51.808;7.478;2023-07-24T11:23:44;2.40;;;2.20;;
12852;SDS011;6495;51.808;7.478;2023-07-24T11:26:14;4.15;;;2.20;;
12852;SDS011;6495;51.808;7.478;2023-07-24T11:28:44;2.92;;;2.55;;
12852;SDS011;6495;51.808;7.478;2023-07-24T11:31:12;2.80;;;2.42;;
12852;SDS011;6495;51.808;7.478;2023-07-24T11:33:41;6.60;;;2.67;;
12852;SDS011;6495;51.808;7.478;2023-07-24T11:36:10;3.42;;;2.35;;
12852;SDS011;6495;51.808;7.478;2023-07-24T11:38:39;3.45;;;2.22;;
12852;SDS011;6495;51.808;7.478;2023-07-24T11:41:08;2.38;;;1.98;;
12852;SDS011;6495;51.808;7.478;2023-07-24T11:43:44;5.25;;;2.30;;
12852;SDS011;6495;51.808;7.478;2023-07-24T11:46:22;2.55;;;2.30;;
12852;SDS011;6495;51.808;7.478;2023-07-24T11:48:52;2.95;;;2.38;;
12852;SDS011;6495;51.808;7.478;2023-07-24T11:51:24;2.60;;;2.40;;
12852;SDS011;6495;51.808;7.478;2023-07-24T11:54:05;2.97;;;2.58;;
12852;SDS011;6495;51.808;7.478;2023-07-24T11:56:35;2.78;;;2.20;;
12852;SDS011;6495;51.808;7.478;2023-07-24T11:59:11;2.92;;;2.47;;
12852;SDS011;6495;51.808;7.478;2023-07-24T12:01:41;3.80;;;2.55;;
12852;SDS011;6495;51.808;7.478;2023-07-24T12:04:14;5.30;;;2.60;;
12852;SDS011;6495;51.808;7.478;2023-07-24T12:06:43;3.20;;;2.50;;
12852;SDS011;6495;51.808;7.478;2023-07-24T12:09:11;2.33;;;2.08;;
12852;SDS011;6495;51.808;7.478;2023-07-24T12:11:40;3.15;;;2.03;;
12852;SDS011;6495;51.808;7.478;2023-07-24T12:14:14;2.45;;;2.20;;
12852;SDS011;6495;51.808;7.478;2023-07-24T12:16:42;2.80;;;2.38;;
12852;SDS011;6495;51.808;7.478;2023-07-24T12:19:10;3.40;;;2.40;;
12852;SDS011;6495;51.808;7.478;2023-07-24T12:21:39;3.63;;;2.67;;
12852;SDS011;6495;51.808;7.478;2023-07-24T12:24:07;2.55;;;2.35;;
12852;SDS011;6495;51.808;7.478;2023-07-24T12:26:35;3.17;;;2.45;;
12852;SDS011;6495;51.808;7.478;2023-07-24T12:29:03;2.63;;;1.92;;
12852;SDS011;6495;51.808;7.478;2023-07-24T12:31:33;2.05;;;1.33;;
12852;SDS011;6495;51.808;7.478;2023-07-24T12:34:02;1.52;;;1.42;;
12852;SDS011;6495;51.808;7.478;2023-07-24T12:36:30;2.45;;;1.80;;
12852;SDS011;6495;51.808;7.478;2023-07-24T12:38:59;1.55;;;1.45;;
12852;SDS011;6495;51.808;7.478;2023-07-24T12:41:27;1.88;;;1.30;;
12852;SDS011;6495;51.808;7.478;2023-07-24T12:43:55;2.47;;;1.90;;
12852;SDS011;6495;51.808;7.478;2023-07-24T12:46:26;2.83;;;1.90;;
12852;SDS011;6495;51.808;7.478;2023-07-24T12:48:56;1.92;;;1.67;;
12852;SDS011;6495;51.808;7.478;2023-07-24T12:51:24;2.42;;;2.05;;
12852;SDS011;6495;51.808;7.478;2023-07-24T12:53:53;2.92;;;2.30;;
12852;SDS011;6495;51.808;7.478;2023-07-24T12:56:41;3.25;;;2.40;;
12852;SDS011;6495;51.808;7.478;2023-07-24T12:59:09;2.83;;;2.40;;
12852;SDS011;6495;51.808;7.478;2023-07-24T13:01:37;6.93;;;2.88;;
12852;SDS011;6495;51.808;7.478;2023-07-24T13:04:07;3.42;;;2.75;;
12852;SDS011;6495;51.808;7.478;2023-07-24T13:06:47;3.45;;;2.65;;
12852;SDS011;6495;51.808;7.478;2023-07-24T13:09:18;4.55;;;2.30;;
12852;SDS011;6495;51.808;7.478;2023-07-24T13:11:47;3.30;;;2.38;;
12852;SDS011;6495;51.808;7.478;2023-07-24T13:14:17;2.10;;;1.90;;
12852;SDS011;6495;51.808;7.478;2023-07-24T13:16:46;2.72;;;1.80;;
12852;SDS011;6495;51.808;7.478;2023-07-24T13:19:18;2.58;;;2.20;;
12852;SDS011;6495;51.808;7.478;2023-07-24T13:21:47;2.03;;;1.58;;
12852;SDS011;6495;51.808;7.478;2023-07-24T13:24:15;2.13;;;1.60;;
12852;SDS011;6495;51.808;7.478;2023-07-24T13:26:43;3.05;;;1.55;;
12852;SDS011;6495;51.808;7.478;2023-07-24T13:29:11;1.98;;;1.55;;
12852;SDS011;6495;51.808;7.478;2023-07-24T13:31:40;2.10;;;1.88;;
12852;SDS011;6495;51.808;7.478;2023-07-24T13:34:08;2.00;;;1.80;;
12852;SDS011;6495;51.808;7.478;2023-07-24T13:36:37;3.67;;;2.00;;
12852;SDS011;6495;51.808;7.478;2023-07-24T13:39:06;2.22;;;1.80;;
12852;SDS011;6495;51.808;7.478;2023-07-24T13:41:34;3.58;;;1.70;;
12852;SDS011;6495;51.808;7.478;2023-07-24T13:44:02;4.80;;;2.03;;
12852;SDS011;6495;51.808;7.478;2023-07-24T13:46:31;2.05;;;1.88;;
12852;SDS011;6495;51.808;7.478;2023-07-24T13:48:59;2.33;;;1.92;;
12852;SDS011;6495;51.808;7.478;2023-07-24T13:51:28;4.57;;;2.40;;
12852;SDS011;6495;51.808;7.478;2023-07-24T13:53:58;4.03;;;2.63;;
12852;SDS011;6495;51.808;7.478;2023-07-24T13:56:29;3.83;;;3.08;;
12852;SDS011;6495;51.808;7.478;2023-07-24T13:59:01;3.35;;;3.00;;
12852;SDS011;6495;51.808;7.478;2023-07-24T14:01:29;3.28;;;2.97;;
12852;SDS011;6495;51.808;7.478;2023-07-24T14:03:58;3.65;;;3.10;;
12852;SDS011;6495;51.808;7.478;2023-07-24T14:06:27;4.45;;;3.42;;
12852;SDS011;6495;51.808;7.478;2023-07-24T14:08:55;3.70;;;3.30;;
12852;SDS011;6495;51.808;7.478;2023-07-24T14:11:24;3.80;;;3.40;;
12852;SDS011;6495;51.808;7.478;2023-07-24T14:13:58;3.20;;;2.90;;
12852;SDS011;6495;51.808;7.478;2023-07-24T14:16:26;3.88;;;2.95;;
12852;SDS011;6495;51.808;7.478;2023-07-24T14:18:55;4.50;;;3.72;;
12852;SDS011;6495;51.808;7.478;2023-07-24T14:21:23;3.58;;;3.22;;
12852;SDS011;6495;51.808;7.478;2023-07-24T14:23:51;4.28;;;3.17;;
12852;SDS011;6495;51.808;7.478;2023-07-24T14:26:19;4.38;;;3.65;;
12852;SDS011;6495;51.808;7.478;2023-07-24T14:28:49;4.30;;;3.63;;
12852;SDS011;6495;51.808;7.478;2023-07-24T14:31:23;3.95;;;3.42;;
12852;SDS011;6495;51.808;7.478;2023-07-24T14:33:52;4.90;;;3.00;;
12852;SDS011;6495;51.808;7.478;2023-07-24T14:36:20;3.60;;;3.00;;
12852;SDS011;6495;51.808;7.478;2023-07-24T14:38:48;3.25;;;2.95;;
12852;SDS011;6495;51.808;7.478;2023-07-24T14:41:17;4.90;;;3.47;;
12852;SDS011;6495;51.808;7.478;2023-07-24T14:43:45;4.55;;;3.15;;
12852;SDS011;6495;51.808;7.478;2023-07-24T14:46:15;3.53;;;2.75;;
12852;SDS011;6495;51.808;7.478;2023-07-24T14:48:46;3.90;;;2.88;;
12852;SDS011;6495;51.808;7.478;2023-07-24T14:51:15;8.05;;;2.85;;
12852;SDS011;6495;51.808;7.478;2023-07-24T14:53:43;3.63;;;2.28;;
12852;SDS011;6495;51.808;7.478;2023-07-24T14:56:11;4.68;;;2.55;;
12852;SDS011;6495;51.808;7.478;2023-07-24T14:58:40;2.70;;;2.40;;
12852;SDS011;6495;51.808;7.478;2023-07-24T15:01:11;3.45;;;2.40;;
12852;SDS011;6495;51.808;7.478;2023-07-24T15:03:41;2.40;;;2.20;;
12852;SDS011;6495;51.808;7.478;2023-07-24T15:06:12;3.65;;;2.90;;
12852;SDS011;6495;51.808;7.478;2023-07-24T15:08:41;3.00;;;2.45;;
12852;SDS011;6495;51.808;7.478;2023-07-24T15:11:09;3.05;;;2.47;;
12852;SDS011;6495;51.808;7.478;2023-07-24T15:13:39;3.30;;;2.13;;
12852;SDS011;6495;51.808;7.478;2023-07-24T15:16:07;2.45;;;2.25;;
12852;SDS011;6495;51.808;7.478;2023-07-24T15:18:35;5.28;;;2.35;;
12852;SDS011;6495;51.808;7.478;2023-07-24T15:21:05;2.80;;;2.20;;
12852;SDS011;6495;51.808;7.478;2023-07-24T15:23:33;3.35;;;2.40;;
12852;SDS011;6495;51.808;7.478;2023-07-24T15:26:02;2.90;;;2.28;;
12852;SDS011;6495;51.808;7.478;2023-07-24T15:28:30;2.55;;;2.05;;